createdAt,value
2022-08-04T00:00:39.624Z,40.26
2022-08-04T00:05:50.090Z,40.33
2022-08-04T00:10:54.582Z,40.45
2022-08-04T00:16:00.382Z,40.25
2022-08-04T00:21:04.909Z,40.45
2022-08-04T00:26:06.309Z,40.41
2022-08-04T00:31:13.217Z,40.30
2022-08-04T00:36:17.404Z,39.91
2022-08-04T00:41:56.550Z,40.42
2022-08-04T00:47:18.878Z,40.35
2022-08-04T00:52:42.588Z,40.04
2022-08-04T00:58:05.621Z,40.69
2022-08-04T01:03:11.764Z,40.05
2022-08-04T01:08:22.028Z,40.48
2022-08-04T01:13:34.502Z,40.52
2022-08-04T01:18:57.748Z,40.21
2022-08-04T01:24:24.752Z,40.49
2022-08-04T01:29:31.051Z,40.51
2022-08-04T01:34:52.838Z,40.31
2022-08-04T01:40:02.027Z,40.17
2022-08-04T01:45:05.677Z,40.71
2022-08-04T01:50:12.021Z,40.51
2022-08-04T01:55:14.217Z,40.20
2022-08-04T02:00:23.079Z,40.51
2022-08-04T02:05:25.593Z,40.24
2022-08-04T02:11:05.069Z,40.55
2022-08-04T02:16:12.530Z,40.46
2022-08-04T02:21:13.940Z,40.23
2022-08-04T02:26:22.584Z,40.60
2022-08-04T02:31:31.458Z,40.50
2022-08-04T02:36:40.417Z,40.53
2022-08-04T02:41:41.979Z,40.56
2022-08-04T02:46:43.394Z,40.20
2022-08-04T02:51:50.744Z,40.57
2022-08-04T02:56:53.177Z,40.59
2022-08-04T03:01:58.252Z,40.55
2022-08-04T03:07:25.052Z,40.16
2022-08-04T03:12:58.857Z,40.66
2022-08-04T03:18:14.130Z,40.39
2022-08-04T03:23:30.720Z,40.11
2022-08-04T03:29:02.501Z,39.97
2022-08-04T03:34:25.882Z,40.01
2022-08-04T03:39:52.285Z,40.45
2022-08-04T03:45:24.513Z,40.40
2022-08-04T03:51:35.941Z,39.95
2022-08-04T03:57:09.397Z,40.37
2022-08-04T04:02:24.118Z,40.14
2022-08-04T04:07:58.252Z,39.90
2022-08-04T04:13:24.542Z,40.01
2022-08-04T04:18:54.542Z,40.07
2022-08-04T04:24:20.145Z,40.57
2022-08-04T04:29:35.025Z,40.10
2022-08-04T04:34:46.970Z,40.32
2022-08-04T04:40:08.556Z,40.08
2022-08-04T04:45:12.741Z,40.39
2022-08-04T04:50:23.533Z,40.37
2022-08-04T04:55:35.702Z,40.36
2022-08-04T05:00:46.021Z,40.14
2022-08-04T05:06:18.305Z,40.15
2022-08-04T05:11:58.889Z,40.17
2022-08-04T05:17:17.989Z,40.26
2022-08-04T05:22:25.253Z,40.35
2022-08-04T05:27:39.719Z,40.38
2022-08-04T05:33:00.008Z,40.25
2022-08-04T05:38:03.116Z,40.16
2022-08-04T05:43:04.800Z,40.42
2022-08-04T05:48:07.577Z,40.76
2022-08-04T05:53:09.839Z,40.26
2022-08-04T05:58:13.638Z,40.51
2022-08-04T06:03:15.036Z,40.69
2022-08-04T06:08:16.466Z,40.94
2022-08-04T06:13:48.488Z,40.99
2022-08-04T06:20:02.192Z,40.82
2022-08-04T06:24:04.517Z,40.81
2022-08-04T06:29:10.993Z,40.86
2022-08-04T06:34:13.773Z,40.91
2022-08-04T06:39:15.195Z,40.37
2022-08-04T06:44:16.633Z,40.80
2022-08-04T06:49:18.061Z,40.54
2022-08-04T06:54:19.477Z,40.39
2022-08-04T06:59:22.147Z,40.53
2022-08-04T07:04:23.557Z,40.70
2022-08-04T07:09:24.961Z,40.47
2022-08-04T07:14:26.960Z,40.51
2022-08-04T07:19:28.369Z,40.50
2022-08-04T07:24:31.209Z,41.38
2022-08-04T07:29:34.709Z,40.90
2022-08-04T07:34:36.129Z,41.29
2022-08-04T07:39:47.974Z,41.20
2022-08-04T07:44:50.025Z,41.23
2022-08-04T07:49:56.571Z,41.21
2022-08-04T07:54:59.256Z,41.48
2022-08-04T08:00:01.013Z,41.91
2022-08-04T08:05:02.753Z,41.51
2022-08-04T08:10:04.289Z,41.69
2022-08-04T08:15:07.320Z,41.63
2022-08-04T08:20:11.801Z,41.00
2022-08-04T08:25:31.825Z,41.15
2022-08-04T08:30:33.577Z,41.45
2022-08-04T08:35:51.146Z,41.55
2022-08-04T08:40:58.945Z,41.52
2022-08-04T08:46:48.013Z,41.82
2022-08-04T08:52:04.089Z,41.44
2022-08-04T08:57:11.345Z,40.95
2022-08-04T09:02:34.950Z,41.47
2022-08-04T09:08:07.041Z,41.59
2022-08-04T09:13:21.330Z,41.31
2022-08-04T09:18:28.304Z,41.75
2022-08-04T09:23:51.407Z,42.08
2022-08-04T09:29:26.346Z,41.57
2022-08-04T09:34:32.041Z,41.49
2022-08-04T09:39:37.451Z,41.38
2022-08-04T09:45:06.235Z,41.49
2022-08-04T09:50:28.242Z,40.86
2022-08-04T09:55:31.664Z,40.55
2022-08-04T10:00:41.290Z,40.38
2022-08-04T10:06:01.265Z,39.71
2022-08-04T10:11:21.556Z,39.75
2022-08-04T10:16:58.501Z,39.80
2022-08-04T10:22:29.336Z,39.35
2022-08-04T10:27:46.154Z,39.38
2022-08-04T10:33:09.625Z,39.09
2022-08-04T10:38:29.805Z,39.18
2022-08-04T10:43:51.985Z,38.63
2022-08-04T10:48:57.796Z,39.03
2022-08-04T10:54:32.921Z,39.01
2022-08-04T11:00:11.718Z,38.42
2022-08-04T11:05:51.943Z,38.70
2022-08-04T11:11:11.733Z,38.81
2022-08-04T11:16:55.033Z,39.04
2022-08-04T11:22:25.375Z,39.11
2022-08-04T11:27:43.681Z,39.11
2022-08-04T11:32:51.968Z,38.77
2022-08-04T11:38:02.453Z,38.69
2022-08-04T11:43:09.952Z,38.42
2022-08-04T11:48:13.716Z,38.26
2022-08-04T11:53:16.894Z,38.61
2022-08-04T11:58:18.805Z,38.65
2022-08-04T12:04:11.405Z,38.73
2022-08-04T12:09:20.344Z,38.56
2022-08-04T12:14:38.697Z,38.29
2022-08-04T12:20:03.895Z,38.23
2022-08-04T12:25:13.033Z,38.37
2022-08-04T12:30:59.318Z,38.84
2022-08-04T12:36:10.622Z,38.62
2022-08-04T12:41:03.583Z,38.81
2022-08-04T12:46:06.337Z,38.69
2022-08-04T12:51:30.881Z,38.70
2022-08-04T12:56:30.489Z,38.57
2022-08-04T13:02:07.249Z,38.47
2022-08-04T13:07:01.977Z,38.60
2022-08-04T13:12:06.073Z,38.32
2022-08-04T13:17:08.555Z,38.81
2022-08-04T13:22:10.204Z,38.61
2022-08-04T13:27:16.418Z,38.66
2022-08-04T13:32:22.407Z,38.32
2022-08-04T13:37:26.521Z,38.49
2022-08-04T13:42:28.501Z,38.78
2022-08-04T13:47:31.776Z,38.58
2022-08-04T13:52:33.593Z,38.13
2022-08-04T13:57:36.804Z,38.30
2022-08-04T14:02:45.391Z,38.10
2022-08-04T14:07:51.411Z,37.23
2022-08-04T14:12:53.019Z,38.28
2022-08-04T14:17:54.441Z,37.65
2022-08-04T14:22:57.517Z,38.77
2022-08-04T14:27:58.946Z,38.32
2022-08-04T14:34:02.085Z,37.78
2022-08-04T14:38:24.573Z,37.48
2022-08-04T14:43:26.189Z,37.76
2022-08-04T14:48:27.599Z,37.62
2022-08-04T14:53:31.858Z,37.85
2022-08-04T14:58:39.444Z,37.32
2022-08-04T15:03:50.853Z,37.07
2022-08-04T15:08:55.949Z,37.20
2022-08-04T15:13:57.496Z,37.12
2022-08-04T15:19:00.080Z,37.12
2022-08-04T15:24:02.382Z,37.14
2022-08-04T15:29:17.937Z,37.20
2022-08-04T15:34:19.541Z,37.45
2022-08-04T15:39:25.891Z,37.32
2022-08-04T15:44:55.165Z,37.09
2022-08-04T15:50:11.128Z,37.60
2022-08-04T15:55:35.144Z,37.18
2022-08-04T16:00:50.081Z,37.52
2022-08-04T16:05:51.548Z,37.26
2022-08-04T16:10:53.193Z,37.43
2022-08-04T16:15:55.522Z,37.41
2022-08-04T16:21:03.610Z,37.60
2022-08-04T16:26:05.038Z,37.85
2022-08-04T16:31:07.069Z,38.01
2022-08-04T16:36:10.778Z,37.61
2022-08-04T16:41:12.311Z,37.80
2022-08-04T16:46:21.789Z,37.80
2022-08-04T16:51:23.457Z,37.78
2022-08-04T16:56:29.484Z,37.68
2022-08-04T17:01:33.173Z,37.46
2022-08-04T17:06:42.005Z,37.81
2022-08-04T17:11:43.946Z,37.71
2022-08-04T17:16:45.353Z,37.84
2022-08-04T17:21:47.072Z,37.67
2022-08-04T17:26:51.813Z,37.38
2022-08-04T17:31:56.161Z,37.93
2022-08-04T17:37:31.162Z,37.61
2022-08-04T17:42:30.325Z,37.70
2022-08-04T17:47:37.951Z,37.37
2022-08-04T17:52:44.948Z,37.93
2022-08-04T17:57:52.650Z,37.39
2022-08-04T18:02:54.657Z,37.74
2022-08-04T18:08:35.108Z,37.58
2022-08-04T18:13:17.614Z,37.91
2022-08-04T18:18:23.764Z,38.14
2022-08-04T18:23:32.152Z,38.09
2022-08-04T18:28:34.701Z,37.71
2022-08-04T18:39:13.124Z,38.07
2022-08-04T18:44:16.598Z,37.58
2022-08-04T18:50:40.194Z,38.10
2022-08-04T19:00:01.450Z,37.90
2022-08-04T19:05:03.766Z,37.68
2022-08-04T19:10:06.657Z,38.03
2022-08-04T19:15:34.192Z,37.82
2022-08-04T19:20:39.564Z,37.58
2022-08-04T19:26:02.021Z,37.71
2022-08-04T19:31:06.641Z,37.91
2022-08-04T19:36:08.264Z,37.58
2022-08-04T19:41:14.534Z,37.50
2022-08-04T19:46:17.801Z,37.72
2022-08-04T19:51:21.005Z,37.99
2022-08-04T19:56:25.771Z,37.61
2022-08-04T20:01:32.565Z,37.95
2022-08-04T20:06:37.640Z,37.53
2022-08-04T20:11:39.093Z,38.18
2022-08-04T20:16:41.034Z,37.94
2022-08-04T20:21:55.672Z,37.56
2022-08-04T20:26:57.909Z,37.63
2022-08-04T20:32:05.404Z,37.69
2022-08-04T20:37:10.712Z,37.61
2022-08-04T20:42:13.184Z,37.82
2022-08-04T20:47:15.113Z,37.96
2022-08-04T20:52:20.293Z,37.71
2022-08-04T20:57:49.762Z,38.05
2022-08-04T21:02:44.442Z,38.22
2022-08-04T21:07:48.926Z,38.05
2022-08-04T21:12:50.593Z,37.81
2022-08-04T21:17:57.661Z,37.81
2022-08-04T21:23:04.909Z,37.75
2022-08-04T21:28:06.633Z,38.03
2022-08-04T21:33:10.264Z,37.78
2022-08-04T21:38:16.657Z,38.12
2022-08-04T21:43:18.920Z,37.93
2022-08-04T21:48:21.645Z,38.10
2022-08-04T21:53:23.081Z,38.09
2022-08-04T21:58:32.640Z,37.99
2022-08-04T22:03:53.200Z,37.83
2022-08-04T22:08:55.525Z,37.91
2022-08-04T22:14:10.716Z,37.96
2022-08-04T22:19:13.713Z,37.85
2022-08-04T22:24:15.222Z,37.89
2022-08-04T22:29:16.874Z,38.43
2022-08-04T22:34:18.296Z,38.11
2022-08-04T22:39:23.617Z,38.28
2022-08-04T22:44:29.633Z,38.54
2022-08-04T22:49:36.717Z,38.53
2022-08-04T22:54:39.173Z,38.61
2022-08-04T22:59:43.403Z,38.71
2022-08-04T23:04:44.926Z,38.55
2022-08-04T23:09:51.719Z,38.39
2022-08-04T23:14:54.856Z,38.58
2022-08-04T23:19:59.173Z,38.41
2022-08-04T23:25:01.269Z,38.82
2022-08-04T23:30:05.738Z,38.98
2022-08-04T23:35:07.408Z,38.95
2022-08-04T23:40:28.211Z,38.86
2022-08-04T23:46:07.628Z,38.97
2022-08-04T23:50:53.741Z,38.71
2022-08-04T23:55:55.191Z,38.53
